Terminal Aerodrome Forecast
Issued by NWS

Home | Current Version | Previous Version | Text Only | Print | Product List | Glossary On
Versions: 1 2 3 4 5 6 7 8 9 10 11 12 13 14 15 16 17 18 19 20 21 22 23
000
FTUS43 KEAX 141458 AAA
TAFSTJ
TAF AMD
KSTJ 141458Z 1415/1512 20004KT 6SM BR BKN007
     FM141600 20008KT P6SM SCT007 BKN010
     FM141700 20008KT P6SM SCT015 SCT100
     FM150300 18005KT P6SM VCTS BKN050CB
     FM150800 18004KT P6SM SCT250=

USA.gov is the U.S. government's official web portal to all federal, state and local government web resources and services.